Time;durP1;ratioP1;P1;durP2;ratioP2;P2;SDS_P1;SDS_P2;PMS_P1;PMS_P2;Temp;Humidity;BMP_temperature;BMP_pressure;BME280_temperature;BME280_humidity;BME280_pressure;Samples;Min_cycle;Max_cycle;Signal;HPM_P1;HPM_P2
2021/10/27 00:02:50;;;;;;;7.80;2.70;;;;;;;;;;4934164;29;20040;-74
2021/10/27 00:05:54;;;;;;;4.90;3.00;;;;;;;;;;4935419;29;20039;-75
2021/10/27 00:08:59;;;;;;;5.53;2.42;;;;;;;;;;4935577;29;20043;-75
2021/10/27 00:12:04;;;;;;;7.15;2.38;;;;;;;;;;4935714;29;20036;-74
2021/10/27 00:15:09;;;;;;;8.15;3.08;;;;;;;;;;4935354;29;20047;-74
2021/10/27 00:18:14;;;;;;;4.18;2.50;;;;;;;;;;4945448;29;20036;-74
2021/10/27 00:21:18;;;;;;;9.35;2.30;;;;;;;;;;4935039;29;20039;-74
2021/10/27 00:24:23;;;;;;;3.90;2.20;;;;;;;;;;4945289;29;20373;-75
2021/10/27 00:27:27;;;;;;;6.82;2.53;;;;;;;;;;4934290;29;20052;-74
2021/10/27 00:30:31;;;;;;;5.40;2.08;;;;;;;;;;4934397;29;20031;-74
2021/10/27 00:33:37;;;;;;;4.32;2.53;;;;;;;;;;4935165;29;20039;-75
2021/10/27 00:36:41;;;;;;;7.13;2.80;;;;;;;;;;4934728;29;20384;-75
2021/10/27 00:39:47;;;;;;;4.47;2.50;;;;;;;;;;4935109;29;20044;-75
2021/10/27 00:42:51;;;;;;;5.18;2.53;;;;;;;;;;4934923;29;20051;-75
2021/10/27 00:45:56;;;;;;;7.13;2.50;;;;;;;;;;4934916;29;20039;-74
2021/10/27 00:49:00;;;;;;;5.68;2.40;;;;;;;;;;4934862;29;20044;-74
2021/10/27 00:52:06;;;;;;;6.25;2.22;;;;;;;;;;4922784;29;20040;-74
2021/10/27 00:55:10;;;;;;;4.90;2.30;;;;;;;;;;4934898;29;20040;-74
2021/10/27 00:58:15;;;;;;;7.43;2.53;;;;;;;;;;4934492;29;20389;-75
2021/10/27 01:01:20;;;;;;;5.05;2.45;;;;;;;;;;4934611;29;20040;-74
2021/10/27 01:04:25;;;;;;;4.68;2.60;;;;;;;;;;4934675;29;20043;-75
2021/10/27 01:07:30;;;;;;;6.15;2.50;;;;;;;;;;4934378;29;20044;-75
2021/10/27 01:10:34;;;;;;;4.78;2.40;;;;;;;;;;4934240;29;20040;-75
2021/10/27 01:13:39;;;;;;;6.35;2.55;;;;;;;;;;4934233;29;20035;-75
2021/10/27 01:16:45;;;;;;;4.43;2.20;;;;;;;;;;4934070;29;20051;-75
2021/10/27 01:19:55;;;;;;;4.13;2.13;;;;;;;;;;4934005;29;20373;-74
2021/10/27 01:22:59;;;;;;;5.20;2.25;;;;;;;;;;4933329;29;20047;-75
2021/10/27 01:26:07;;;;;;;5.88;2.80;;;;;;;;;;4933187;29;20520;-74
2021/10/27 01:29:11;;;;;;;8.10;2.72;;;;;;;;;;4934392;29;20400;-74
2021/10/27 01:32:27;;;;;;;7.45;2.60;;;;;;;;;;4933945;29;20032;-74
2021/10/27 01:35:31;;;;;;;5.50;2.80;;;;;;;;;;4933951;29;20048;-75
2021/10/27 01:38:36;;;;;;;10.73;2.53;;;;;;;;;;4934165;29;20401;-75
2021/10/27 01:41:40;;;;;;;9.23;2.78;;;;;;;;;;4933230;29;20046;-75
2021/10/27 01:44:44;;;;;;;6.13;2.50;;;;;;;;;;4933868;29;20031;-75
2021/10/27 01:47:49;;;;;;;5.75;2.72;;;;;;;;;;4934098;29;20066;-75
2021/10/27 01:50:53;;;;;;;6.22;2.70;;;;;;;;;;4934293;29;20043;-74
2021/10/27 01:53:58;;;;;;;4.88;3.08;;;;;;;;;;4933816;29;20040;-75
2021/10/27 01:57:06;;;;;;;4.43;2.85;;;;;;;;;;4933949;29;20078;-75
2021/10/27 02:00:11;;;;;;;4.97;2.55;;;;;;;;;;4933823;29;20040;-75
2021/10/27 02:03:19;;;;;;;6.03;2.83;;;;;;;;;;4933769;29;20377;-74
2021/10/27 02:06:23;;;;;;;3.38;2.70;;;;;;;;;;4933632;29;20027;-75
2021/10/27 02:09:28;;;;;;;4.85;3.22;;;;;;;;;;4933862;29;20044;-74
2021/10/27 02:12:32;;;;;;;6.38;2.78;;;;;;;;;;4933368;29;20036;-74
2021/10/27 02:15:37;;;;;;;7.18;3.17;;;;;;;;;;4933607;29;20047;-75
2021/10/27 02:18:41;;;;;;;6.13;3.38;;;;;;;;;;4933410;29;20036;-75
2021/10/27 02:21:46;;;;;;;4.13;2.80;;;;;;;;;;4933566;29;20040;-75
2021/10/27 02:24:50;;;;;;;9.10;2.95;;;;;;;;;;4933453;29;20035;-74
2021/10/27 02:27:55;;;;;;;7.13;3.17;;;;;;;;;;4936936;29;20063;-74
2021/10/27 02:30:59;;;;;;;7.60;3.88;;;;;;;;;;4937148;29;20040;-74
2021/10/27 02:34:04;;;;;;;6.45;3.25;;;;;;;;;;4937117;29;20488;-75
2021/10/27 02:37:08;;;;;;;4.72;3.50;;;;;;;;;;4937203;29;20051;-75
2021/10/27 02:40:14;;;;;;;7.53;3.38;;;;;;;;;;4937173;29;20039;-75
2021/10/27 02:43:19;;;;;;;6.22;3.20;;;;;;;;;;4936987;29;20036;-75
2021/10/27 02:46:24;;;;;;;5.40;3.00;;;;;;;;;;4936160;29;20487;-74
2021/10/27 02:49:28;;;;;;;8.27;3.40;;;;;;;;;;4937051;29;20051;-75
2021/10/27 02:52:33;;;;;;;5.10;2.90;;;;;;;;;;4936881;29;20036;-75
2021/10/27 02:55:37;;;;;;;4.97;3.05;;;;;;;;;;4936148;29;20040;-75
2021/10/27 02:58:42;;;;;;;6.45;3.17;;;;;;;;;;4936959;29;20040;-75
2021/10/27 03:01:46;;;;;;;8.52;3.33;;;;;;;;;;4936688;29;20039;-75
2021/10/27 03:04:51;;;;;;;5.50;3.35;;;;;;;;;;4936793;29;20405;-75
2021/10/27 03:07:56;;;;;;;7.75;3.50;;;;;;;;;;4936673;29;20032;-74
2021/10/27 03:11:00;;;;;;;6.95;3.00;;;;;;;;;;4935897;29;20047;-75
2021/10/27 03:14:05;;;;;;;8.13;3.00;;;;;;;;;;4936688;29;20040;-74
2021/10/27 03:17:09;;;;;;;5.85;3.50;;;;;;;;;;4936576;29;20070;-73
2021/10/27 03:20:13;;;;;;;7.13;3.63;;;;;;;;;;4946704;29;20040;-74
2021/10/27 03:23:20;;;;;;;6.20;3.70;;;;;;;;;;4936424;29;20040;-74
2021/10/27 03:26:24;;;;;;;7.28;4.00;;;;;;;;;;4936097;29;20039;-74
2021/10/27 03:29:28;;;;;;;7.07;3.65;;;;;;;;;;4936414;29;20044;-74
2021/10/27 03:32:33;;;;;;;6.70;3.40;;;;;;;;;;4936004;29;20035;-74
2021/10/27 03:35:37;;;;;;;7.70;3.88;;;;;;;;;;4935221;29;20047;-74
2021/10/27 03:38:42;;;;;;;5.32;3.60;;;;;;;;;;4934815;29;20040;-74
2021/10/27 03:41:46;;;;;;;5.65;3.55;;;;;;;;;;4935368;29;20043;-74
2021/10/27 03:44:50;;;;;;;5.95;3.65;;;;;;;;;;4935085;29;20035;-74
2021/10/27 03:47:55;;;;;;;7.50;3.58;;;;;;;;;;4935096;29;20048;-74
2021/10/27 03:50:59;;;;;;;4.07;3.20;;;;;;;;;;4936192;29;20044;-74
2021/10/27 03:54:03;;;;;;;5.38;3.70;;;;;;;;;;4935037;29;20040;-74
2021/10/27 03:57:08;;;;;;;6.95;3.70;;;;;;;;;;4934445;29;20048;-74
2021/10/27 04:00:13;;;;;;;6.22;3.90;;;;;;;;;;4945768;29;20391;-75
2021/10/27 04:03:21;;;;;;;9.55;3.78;;;;;;;;;;4935596;29;20043;-74
2021/10/27 04:06:25;;;;;;;6.95;3.80;;;;;;;;;;4934927;29;20043;-74
2021/10/27 04:09:29;;;;;;;11.73;4.22;;;;;;;;;;4923671;29;20027;-74
2021/10/27 04:12:34;;;;;;;7.55;4.13;;;;;;;;;;4935421;29;20043;-73
2021/10/27 04:15:38;;;;;;;7.38;3.55;;;;;;;;;;4934254;29;20039;-74
2021/10/27 04:18:43;;;;;;;5.78;3.50;;;;;;;;;;4935153;29;20035;-74
2021/10/27 04:21:47;;;;;;;5.88;3.05;;;;;;;;;;4935123;29;20047;-74
2021/10/27 04:24:51;;;;;;;5.47;3.00;;;;;;;;;;4934721;29;20044;-73
2021/10/27 04:27:56;;;;;;;7.55;3.60;;;;;;;;;;4934237;29;20378;-74
2021/10/27 04:31:02;;;;;;;7.05;3.63;;;;;;;;;;4934862;29;20373;-74
2021/10/27 04:34:06;;;;;;;5.32;3.95;;;;;;;;;;4935056;29;20044;-74
2021/10/27 04:37:11;;;;;;;9.68;4.00;;;;;;;;;;4934765;29;20384;-74
2021/10/27 04:40:16;;;;;;;5.65;3.53;;;;;;;;;;4935164;29;20039;-74
2021/10/27 04:43:20;;;;;;;6.97;4.00;;;;;;;;;;4934929;29;20044;-74
2021/10/27 04:46:24;;;;;;;6.97;4.50;;;;;;;;;;4934629;29;20039;-74
2021/10/27 04:49:28;;;;;;;9.05;4.13;;;;;;;;;;4934418;29;20039;-74
2021/10/27 04:52:33;;;;;;;6.00;3.92;;;;;;;;;;4934371;29;20035;-74
2021/10/27 04:55:37;;;;;;;5.45;4.13;;;;;;;;;;4934450;29;20052;-74
2021/10/27 04:58:41;;;;;;;9.25;5.22;;;;;;;;;;4934150;29;20039;-74
2021/10/27 05:01:49;;;;;;;6.82;4.70;;;;;;;;;;4934441;29;20040;-75
2021/10/27 05:04:53;;;;;;;6.68;4.13;;;;;;;;;;4934791;29;20039;-74
2021/10/27 05:08:00;;;;;;;6.47;4.80;;;;;;;;;;4934076;29;20381;-75
2021/10/27 05:11:04;;;;;;;6.93;4.70;;;;;;;;;;4934085;29;20043;-75
2021/10/27 05:14:09;;;;;;;7.15;5.25;;;;;;;;;;4934533;29;20039;-75
2021/10/27 05:17:13;;;;;;;7.28;4.80;;;;;;;;;;4934037;29;20047;-74
2021/10/27 05:20:17;;;;;;;13.80;9.27;;;;;;;;;;4934352;29;20036;-74
2021/10/27 05:23:22;;;;;;;10.60;8.05;;;;;;;;;;4933964;29;20055;-74
2021/10/27 05:26:26;;;;;;;10.07;6.38;;;;;;;;;;4933776;29;20059;-75
2021/10/27 05:29:31;;;;;;;12.00;6.60;;;;;;;;;;4934057;29;20054;-74
2021/10/27 05:32:35;;;;;;;10.32;5.75;;;;;;;;;;4933127;29;20037;-74
2021/10/27 05:35:39;;;;;;;8.27;3.92;;;;;;;;;;4933955;29;20532;-76
2021/10/27 05:38:44;;;;;;;9.07;4.78;;;;;;;;;;4934254;29;20043;-74
2021/10/27 05:41:49;;;;;;;9.95;5.20;;;;;;;;;;4933991;29;20035;-73
2021/10/27 05:44:54;;;;;;;10.07;4.18;;;;;;;;;;4933857;29;20047;-74
2021/10/27 05:48:00;;;;;;;8.68;4.70;;;;;;;;;;4933829;29;20044;-74
2021/10/27 05:57:38;;;;;;;9.85;3.95;;;;;;;;;;4933937;29;20051;-78
2021/10/27 06:00:44;;;;;;;12.57;5.53;;;;;;;;;;4933573;29;20027;-75
2021/10/27 06:03:48;;;;;;;14.77;5.88;;;;;;;;;;4937167;29;20051;-76
2021/10/27 06:06:52;;;;;;;9.85;5.15;;;;;;;;;;4936780;29;20508;-76
2021/10/27 06:09:57;;;;;;;9.18;4.95;;;;;;;;;;4936958;29;20051;-76
2021/10/27 06:13:04;;;;;;;7.68;4.03;;;;;;;;;;4937542;29;20039;-81
2021/10/27 06:16:09;;;;;;;11.20;4.35;;;;;;;;;;4937284;29;20043;-79
2021/10/27 06:19:13;;;;;;;8.55;4.65;;;;;;;;;;4936577;29;20055;-74
2021/10/27 06:22:17;;;;;;;14.55;5.38;;;;;;;;;;4937300;29;20048;-73
2021/10/27 06:25:22;;;;;;;13.55;5.07;;;;;;;;;;4937185;29;20043;-77
2021/10/27 06:28:30;;;;;;;9.95;4.70;;;;;;;;;;4937778;29;20052;-77
2021/10/27 06:31:37;;;;;;;6.80;3.38;;;;;;;;;;4946916;29;20043;-82
2021/10/27 06:34:51;;;;;;;7.90;3.60;;;;;;;;;;4936913;29;20039;-77
2021/10/27 06:48:27;;;;;;;10.43;4.00;;;;;;;;;;4936241;29;20055;-75
2021/10/27 06:51:32;;;;;;;10.35;4.40;;;;;;;;;;4935826;29;20048;-77
2021/10/27 06:54:36;;;;;;;7.15;3.47;;;;;;;;;;4946481;29;20054;-76
2021/10/27 06:57:41;;;;;;;9.32;3.55;;;;;;;;;;4935983;29;20048;-74
2021/10/27 07:00:48;;;;;;;10.60;3.70;;;;;;;;;;4936446;29;20048;-76
2021/10/27 07:17:09;;;;;;;11.00;3.67;;;;;;;;;;4934771;29;20047;-81
2021/10/27 07:20:13;;;;;;;9.25;3.80;;;;;;;;;;4936795;29;20047;-80
2021/10/27 07:23:18;;;;;;;8.05;4.43;;;;;;;;;;4935920;29;20040;-81
2021/10/27 07:26:23;;;;;;;6.47;3.72;;;;;;;;;;4935585;29;20048;-85
2021/10/27 07:29:27;;;;;;;9.30;3.20;;;;;;;;;;4924666;29;20047;-76
2021/10/27 07:32:32;;;;;;;5.90;3.10;;;;;;;;;;4936383;29;20040;-81
2021/10/27 07:35:50;;;;;;;6.75;3.58;;;;;;;;;;4936589;29;20039;-74
2021/10/27 07:42:17;;;;;;;9.80;3.78;;;;;;;;;;4936533;29;20381;-80
2021/10/27 07:45:26;;;;;;;11.80;4.10;;;;;;;;;;4935591;29;20044;-83
2021/10/27 07:48:30;;;;;;;8.63;3.92;;;;;;;;;;4936462;29;20051;-72
2021/10/27 07:51:34;;;;;;;7.32;3.30;;;;;;;;;;4936226;29;20043;-71
2021/10/27 07:54:39;;;;;;;6.47;3.72;;;;;;;;;;4936078;29;20040;-77
2021/10/27 07:57:47;;;;;;;10.65;4.40;;;;;;;;;;4935839;29;20048;-79
2021/10/27 08:00:52;;;;;;;7.57;3.75;;;;;;;;;;4935059;29;20042;-75
2021/10/27 08:03:57;;;;;;;7.28;4.28;;;;;;;;;;4934767;29;20040;-74
2021/10/27 08:07:01;;;;;;;8.05;4.00;;;;;;;;;;4933763;29;20044;-79
2021/10/27 08:10:07;;;;;;;8.40;3.80;;;;;;;;;;4933505;29;20375;-84
2021/10/27 08:13:11;;;;;;;9.77;4.07;;;;;;;;;;4934502;29;20476;-80
2021/10/27 08:16:15;;;;;;;9.50;4.47;;;;;;;;;;4934931;29;20523;-73
2021/10/27 08:19:20;;;;;;;13.45;3.95;;;;;;;;;;4934437;29;20385;-74
2021/10/27 08:22:25;;;;;;;9.07;4.18;;;;;;;;;;4934707;29;20044;-81
2021/10/27 08:25:39;;;;;;;8.80;4.22;;;;;;;;;;4934355;29;20044;-73
2021/10/27 08:28:54;;;;;;;8.93;3.67;;;;;;;;;;4934198;29;20385;-75
2021/10/27 08:32:05;;;;;;;7.65;3.58;;;;;;;;;;4934978;29;20040;-72
2021/10/27 08:35:11;;;;;;;8.57;4.07;;;;;;;;;;4935148;29;20047;-76
2021/10/27 08:38:16;;;;;;;9.35;5.03;;;;;;;;;;4934900;29;20376;-78
2021/10/27 08:41:20;;;;;;;13.57;5.68;;;;;;;;;;4935126;29;20043;-85
2021/10/27 08:44:25;;;;;;;12.52;5.80;;;;;;;;;;4935787;29;20043;-78
2021/10/27 08:47:29;;;;;;;12.85;4.47;;;;;;;;;;4935529;29;20047;-79
2021/10/27 08:50:34;;;;;;;10.82;4.65;;;;;;;;;;4934985;29;20055;-80
2021/10/27 08:53:38;;;;;;;9.52;4.93;;;;;;;;;;4934292;29;20039;-74
2021/10/27 08:56:44;;;;;;;9.13;4.78;;;;;;;;;;4936148;29;20503;-76
2021/10/27 09:00:03;;;;;;;7.43;3.92;;;;;;;;;;4934712;29;20039;-79
2021/10/27 09:03:15;;;;;;;11.70;4.43;;;;;;;;;;4922915;29;20047;-79
2021/10/27 09:06:36;;;;;;;21.98;5.22;;;;;;;;;;4934660;29;20047;-77
2021/10/27 09:36:56;;;;;;;8.48;4.43;;;;;;;;;;4933368;29;20051;-76
2021/10/27 10:04:00;;;;;;;11.90;5.38;;;;;;;;;;4934735;29;20058;-75
2021/10/27 10:06:57;;;;;;;12.40;5.13;;;;;;;;;;4934007;29;20039;-73
2021/10/27 10:10:07;;;;;;;10.55;4.90;;;;;;;;;;4932875;29;20052;-82
2021/10/27 10:13:11;;;;;;;16.25;6.07;;;;;;;;;;4933157;29;20040;-78
2021/10/27 10:16:16;;;;;;;16.90;5.72;;;;;;;;;;4932827;29;20044;-72
2021/10/27 10:19:22;;;;;;;11.52;5.00;;;;;;;;;;4921964;29;20059;-84
2021/10/27 10:22:26;;;;;;;11.50;3.85;;;;;;;;;;4932917;29;20498;-75
2021/10/27 10:25:33;;;;;;;9.18;4.65;;;;;;;;;;4932494;29;20052;-82
2021/10/27 10:28:42;;;;;;;8.27;4.90;;;;;;;;;;4933657;29;20048;-77
2021/10/27 10:31:46;;;;;;;13.38;4.63;;;;;;;;;;4933994;29;20365;-75
2021/10/27 10:34:53;;;;;;;7.68;4.40;;;;;;;;;;4933848;29;20047;-73
2021/10/27 10:38:11;;;;;;;11.25;4.20;;;;;;;;;;4933821;29;20051;-73
2021/10/27 10:41:43;;;;;;;6.35;3.60;;;;;;;;;;4933696;29;20051;-73
2021/10/27 11:22:18;;;;;;;10.52;3.80;;;;;;;;;;4935465;29;20043;-77
2021/10/27 11:39:20;;;;;;;8.07;4.32;;;;;;;;;;4935474;29;20059;-77
2021/10/27 11:45:39;;;;;;;9.85;4.20;;;;;;;;;;4934543;29;20040;-76
2021/10/27 11:48:54;;;;;;;11.70;4.55;;;;;;;;;;4934597;29;20040;-75
2021/10/27 11:51:58;;;;;;;11.45;3.92;;;;;;;;;;4935007;29;20058;-76
2021/10/27 11:55:04;;;;;;;15.85;5.63;;;;;;;;;;4925850;29;20040;-76
2021/10/27 11:58:09;;;;;;;9.68;4.95;;;;;;;;;;4934621;29;20043;-77
2021/10/27 12:01:15;;;;;;;6.95;3.75;;;;;;;;;;4934748;29;20031;-77
2021/10/27 12:04:20;;;;;;;8.18;3.58;;;;;;;;;;4934650;29;20043;-77
2021/10/27 12:07:42;;;;;;;10.55;3.50;;;;;;;;;;4935479;29;20040;-77
2021/10/27 12:11:30;;;;;;;;;;;;;;;;;;4935749;29;20031;-75
2021/10/27 12:20:44;;;;;;;7.53;4.25;;;;;;;;;;4937179;29;20043;-75
2021/10/27 12:23:50;;;;;;;7.53;3.80;;;;;;;;;;4935790;29;20444;-83
2021/10/27 12:27:04;;;;;;;9.43;3.88;;;;;;;;;;4923314;29;20047;-74
2021/10/27 12:30:10;;;;;;;10.80;4.10;;;;;;;;;;4935282;29;20039;-75
2021/10/27 12:33:14;;;;;;;6.70;3.33;;;;;;;;;;4935176;29;20451;-83
2021/10/27 12:39:43;;;;;;;8.20;3.70;;;;;;;;;;4935492;29;20052;-80
2021/10/27 12:42:58;;;;;;;10.95;3.40;;;;;;;;;;4934484;29;20051;-77
2021/10/27 12:46:02;;;;;;;6.88;3.70;;;;;;;;;;4934837;29;20036;-80
2021/10/27 12:49:17;;;;;;;7.07;3.13;;;;;;;;;;4935506;29;20047;-82
2021/10/27 12:52:26;;;;;;;7.95;3.97;;;;;;;;;;4934717;29;20028;-75
2021/10/27 12:55:33;;;;;;;7.93;3.63;;;;;;;;;;4934964;29;20369;-82
2021/10/27 12:58:46;;;;;;;6.90;3.60;;;;;;;;;;4934866;29;20056;-80
2021/10/27 13:02:07;;;;;;;8.57;4.15;;;;;;;;;;4933762;29;20035;-76
2021/10/27 13:05:42;;;;;;;8.95;3.38;;;;;;;;;;4935116;29;20040;-83
2021/10/27 13:31:33;;;;;;;9.40;3.88;;;;;;;;;;4934218;29;20043;-78
2021/10/27 13:34:38;;;;;;;11.35;4.47;;;;;;;;;;4933386;29;20070;-81
2021/10/27 13:37:42;;;;;;;7.47;3.38;;;;;;;;;;4933866;29;20060;-79
2021/10/27 13:40:47;;;;;;;6.97;3.50;;;;;;;;;;4933828;29;20040;-80
2021/10/27 13:43:55;;;;;;;6.60;3.53;;;;;;;;;;4933653;29;20048;-77
2021/10/27 14:06:55;;;;;;;10.95;3.88;;;;;;;;;;4934105;29;20048;-83
2021/10/27 14:10:06;;;;;;;12.00;3.90;;;;;;;;;;4934172;29;20043;-80
2021/10/27 14:13:29;;;;;;;15.27;6.05;;;;;;;;;;4934080;29;20051;-78
2021/10/27 14:40:14;;;;;;;13.13;4.03;;;;;;;;;;4936946;29;20048;-80
2021/10/27 15:20:38;;;;;;;5.78;3.50;;;;;;;;;;4936120;29;20406;-72
2021/10/27 15:30:36;;;;;;;12.23;4.20;;;;;;;;;;4935559;29;20044;-76
2021/10/27 15:40:34;;;;;;;10.50;4.55;;;;;;;;;;4936035;29;20052;-73
2021/10/27 15:50:45;;;;;;;12.80;4.80;;;;;;;;;;4935432;29;20036;-73
2021/10/27 15:53:53;;;;;;;7.28;4.80;;;;;;;;;;4935541;29;20040;-71
2021/10/27 15:56:57;;;;;;;7.65;4.53;;;;;;;;;;4934393;29;20367;-75
2021/10/27 16:00:02;;;;;;;10.68;5.40;;;;;;;;;;4934410;29;20036;-73
2021/10/27 16:03:09;;;;;;;12.80;4.35;;;;;;;;;;4934742;29;20111;-73
2021/10/27 16:06:15;;;;;;;13.52;5.00;;;;;;;;;;4934984;29;20051;-72
2021/10/27 16:09:24;;;;;;;7.70;4.20;;;;;;;;;;4935015;29;20052;-71
2021/10/27 16:12:28;;;;;;;8.90;4.53;;;;;;;;;;4935349;29;20491;-76
2021/10/27 16:15:41;;;;;;;10.63;3.92;;;;;;;;;;4935407;29;20051;-70
2021/10/27 16:18:46;;;;;;;10.32;4.53;;;;;;;;;;4935067;29;20452;-70
2021/10/27 16:21:50;;;;;;;12.60;4.35;;;;;;;;;;4934768;29;20042;-71
2021/10/27 16:24:55;;;;;;;6.38;3.63;;;;;;;;;;4934382;29;20043;-72
2021/10/27 16:28:00;;;;;;;7.00;3.67;;;;;;;;;;4935094;29;20044;-71
2021/10/27 16:31:04;;;;;;;10.38;3.88;;;;;;;;;;4934620;29;20361;-73
2021/10/27 16:34:10;;;;;;;10.05;4.30;;;;;;;;;;4934411;29;20051;-80
2021/10/27 16:37:14;;;;;;;11.52;4.05;;;;;;;;;;4934329;29;20047;-74
2021/10/27 16:40:19;;;;;;;8.45;4.80;;;;;;;;;;4933057;29;20046;-71
2021/10/27 16:43:24;;;;;;;11.55;5.10;;;;;;;;;;4933275;29;20350;-73
2021/10/27 16:46:29;;;;;;;7.20;4.28;;;;;;;;;;4933218;29;20056;-72
2021/10/27 16:49:33;;;;;;;6.97;4.18;;;;;;;;;;4933549;29;20491;-73
2021/10/27 16:52:38;;;;;;;10.63;4.68;;;;;;;;;;4934425;29;20408;-80
2021/10/27 16:55:42;;;;;;;9.93;3.83;;;;;;;;;;4934518;29;20051;-71
2021/10/27 16:58:46;;;;;;;8.98;3.88;;;;;;;;;;4932912;29;20043;-73
2021/10/27 17:01:51;;;;;;;7.15;3.83;;;;;;;;;;4933671;29;20047;-71
2021/10/27 17:04:58;;;;;;;7.10;4.10;;;;;;;;;;4923031;29;20047;-76
2021/10/27 17:08:02;;;;;;;13.40;5.63;;;;;;;;;;4934041;29;20047;-75
2021/10/27 17:11:07;;;;;;;11.98;5.03;;;;;;;;;;4932244;29;20056;-80
2021/10/27 17:14:11;;;;;;;12.63;6.80;;;;;;;;;;4933928;29;20046;-79
2021/10/27 17:17:15;;;;;;;18.98;6.75;;;;;;;;;;4933834;29;20440;-79
2021/10/27 17:20:19;;;;;;;15.18;6.95;;;;;;;;;;4932521;29;20112;-79
2021/10/27 17:23:29;;;;;;;17.55;8.40;;;;;;;;;;4933056;29;20043;-79
2021/10/27 17:26:33;;;;;;;21.50;8.88;;;;;;;;;;4933447;29;20051;-79
2021/10/27 17:29:37;;;;;;;22.83;7.85;;;;;;;;;;4934219;29;20052;-79
2021/10/27 17:32:42;;;;;;;12.55;7.40;;;;;;;;;;4933737;29;20047;-80
2021/10/27 17:35:47;;;;;;;16.13;8.77;;;;;;;;;;4933614;29;20042;-79
2021/10/27 17:38:51;;;;;;;12.05;7.43;;;;;;;;;;4932670;29;20411;-80
2021/10/27 17:41:57;;;;;;;14.20;8.23;;;;;;;;;;4933713;29;20031;-80
2021/10/27 17:45:04;;;;;;;13.25;7.10;;;;;;;;;;4932958;29;20047;-80
2021/10/27 17:48:14;;;;;;;16.70;8.43;;;;;;;;;;4933567;29;20051;-79
2021/10/27 17:51:20;;;;;;;15.15;6.88;;;;;;;;;;4933712;29;20547;-79
2021/10/27 18:00:53;;;;;;;26.15;8.60;;;;;;;;;;4937652;29;20052;-81
2021/10/27 18:03:58;;;;;;;18.55;7.75;;;;;;;;;;4937236;29;20047;-81
2021/10/27 18:07:02;;;;;;;19.58;7.85;;;;;;;;;;4937775;29;20044;-80
2021/10/27 18:10:08;;;;;;;23.83;8.50;;;;;;;;;;4937395;29;20051;-79
2021/10/27 18:13:19;;;;;;;15.90;7.88;;;;;;;;;;4938344;29;20051;-79
2021/10/27 18:20:03;;;;;;;15.10;6.80;;;;;;;;;;4937401;29;20063;-78
2021/10/27 18:23:22;;;;;;;15.60;7.68;;;;;;;;;;4937285;29;20396;-79
2021/10/27 18:36:48;;;;;;;11.90;6.03;;;;;;;;;;4937164;29;20044;-78
2021/10/27 18:46:23;;;;;;;13.02;7.82;;;;;;;;;;4936473;29;20040;-80
2021/10/27 18:49:28;;;;;;;11.05;5.95;;;;;;;;;;4936427;29;20051;-79
2021/10/27 18:55:56;;;;;;;10.68;5.30;;;;;;;;;;4933850;29;20054;-78
2021/10/27 19:02:35;;;;;;;28.83;14.52;;;;;;;;;;4934471;29;20035;-79
2021/10/27 19:12:20;;;;;;;12.90;5.43;;;;;;;;;;4935918;29;20035;-78
2021/10/27 19:15:33;;;;;;;10.35;5.43;;;;;;;;;;4936374;29;20040;-78
2021/10/27 19:18:38;;;;;;;11.30;5.60;;;;;;;;;;4936094;29;20070;-78
2021/10/27 19:21:43;;;;;;;11.43;5.15;;;;;;;;;;4936200;29;20047;-78
2021/10/27 19:28:20;;;;;;;14.00;5.35;;;;;;;;;;4935825;29;20067;-78
2021/10/27 20:52:37;;;;;;;10.10;4.28;;;;;;;;;;4934803;29;20404;-78
2021/10/27 20:55:41;;;;;;;;;;;;;;;;;;4935146;29;20042;-78
2021/10/27 21:02:42;;;;;;;7.72;4.28;;;;;;;;;;4934656;29;20350;-77
2021/10/27 21:15:28;;;;;;;6.78;4.53;;;;;;;;;;4933617;29;20397;-78
2021/10/27 21:18:32;;;;;;;9.80;4.65;;;;;;;;;;4933528;29;20303;-78
2021/10/27 21:21:37;;;;;;;9.95;4.70;;;;;;;;;;4933443;29;20040;-78
2021/10/27 21:24:45;;;;;;;8.98;4.40;;;;;;;;;;4934467;29;20487;-78
2021/10/27 21:44:11;;;;;;;14.70;5.35;;;;;;;;;;4934631;29;20039;-79
2021/10/27 21:47:16;;;;;;;10.80;4.65;;;;;;;;;;4934220;29;20047;-79
2021/10/27 21:50:20;;;;;;;13.45;4.22;;;;;;;;;;4933199;29;20036;-79
2021/10/27 21:53:25;;;;;;;13.73;4.72;;;;;;;;;;4934224;29;20040;-78
2021/10/27 21:56:29;;;;;;;12.25;4.15;;;;;;;;;;4933584;29;20036;-79
2021/10/27 21:59:34;;;;;;;7.65;4.20;;;;;;;;;;4933550;29;20043;-79
2021/10/27 22:02:38;;;;;;;14.35;4.53;;;;;;;;;;4933510;29;20032;-79
2021/10/27 22:05:43;;;;;;;10.30;4.20;;;;;;;;;;4933247;29;20047;-79
2021/10/27 22:08:47;;;;;;;7.72;4.20;;;;;;;;;;4934121;29;20040;-78
2021/10/27 22:11:53;;;;;;;8.38;4.18;;;;;;;;;;4933240;29;20073;-79
2021/10/27 22:15:00;;;;;;;7.18;3.85;;;;;;;;;;4933674;29;20039;-79
2021/10/27 22:18:06;;;;;;;6.55;4.10;;;;;;;;;;4933620;29;20047;-79
2021/10/27 22:21:12;;;;;;;6.22;3.67;;;;;;;;;;4932896;29;20314;-79
2021/10/27 22:24:18;;;;;;;9.93;4.60;;;;;;;;;;4943970;29;20039;-79
2021/10/27 22:27:22;;;;;;;9.35;4.57;;;;;;;;;;4933748;29;20040;-78
2021/10/27 22:30:27;;;;;;;13.63;4.72;;;;;;;;;;4933075;29;20036;-78
2021/10/27 22:33:31;;;;;;;7.78;4.13;;;;;;;;;;4932976;29;20040;-78
2021/10/27 22:36:36;;;;;;;10.88;4.25;;;;;;;;;;4933504;29;20043;-79
2021/10/27 22:39:44;;;;;;;8.43;3.83;;;;;;;;;;4932680;29;20054;-79
2021/10/27 22:42:49;;;;;;;7.63;4.43;;;;;;;;;;4933972;29;20032;-79
2021/10/27 22:45:54;;;;;;;9.15;3.90;;;;;;;;;;4937394;29;20036;-79
2021/10/27 22:48:58;;;;;;;9.02;4.60;;;;;;;;;;4936946;29;20480;-79
2021/10/27 22:52:03;;;;;;;11.15;4.70;;;;;;;;;;4936937;29;20048;-79
2021/10/27 22:55:08;;;;;;;9.27;4.50;;;;;;;;;;4937295;29;20040;-79
2021/10/27 22:58:20;;;;;;;7.05;4.30;;;;;;;;;;4936133;29;20044;-79
2021/10/27 23:01:28;;;;;;;16.17;5.45;;;;;;;;;;4936118;29;20044;-79
2021/10/27 23:07:46;;;;;;;13.73;5.53;;;;;;;;;;4936939;29;20044;-79
2021/10/27 23:11:14;;;;;;;11.15;5.65;;;;;;;;;;4936518;29;20042;-79
2021/10/27 23:14:56;;;;;;;9.77;5.18;;;;;;;;;;4925214;29;20542;-79
2021/10/27 23:41:56;;;;;;;11.50;4.10;;;;;;;;;;4935915;29;20039;-78
2021/10/27 23:48:06;;;;;;;15.32;5.18;;;;;;;;;;4936268;29;20047;-79
2021/10/27 23:51:18;;;;;;;10.93;4.97;;;;;;;;;;4936255;29;20060;-79
